GLD1028 SBSI-SWJN
Flight info
| Callsign | GLD1028 |
|---|---|
| Flight time | 1h 17m |
| Altitude | 4500 |
| Route | DCT 1138S05604W DCT 1130S05640W DCT 1132S05701W DCT 1133S05721W DCT 1129S05751W DCT 1132S05815W DCT1132S05822W |
| Aircraft | BE58/L-SDFGIRY/S |
Departure
| Time | 2026-04-26 17:55 |
|---|---|
| Airport | Presidente João Batista Figueiredo Airport (SBSI) |
Arrival
| Time | 2026-04-26 19:13 |
|---|---|
| Airport | Juína Airport (SWJN) |
| Time | Latitude | Longitude | Altitude | Speed | Heading |
|---|---|---|---|---|---|
| 2026-04-26 16:49 | -11.87960 | -55.58266 | 1250 ft | 0 kts | 16° |
| 2026-04-26 17:36 | -11.87959 | -55.58266 | 1247 ft | 0 kts | 16° |
| 2026-04-26 17:37 | -11.87958 | -55.58265 | 1242 ft | 0 kts | 17° |
| 2026-04-26 17:37 | -11.87929 | -55.58284 | 1240 ft | 12 kts | 270° |
| 2026-04-26 17:38 | -11.87842 | -55.58347 | 1247 ft | 0 kts | 285° |
| 2026-04-26 17:39 | -11.87835 | -55.58373 | 1242 ft | 0 kts | 289° |
| 2026-04-26 17:39 | -11.87824 | -55.58443 | 1239 ft | 11 kts | 218° |
| 2026-04-26 17:40 | -11.87842 | -55.58452 | 1243 ft | 0 kts | 195° |
| 2026-04-26 17:42 | -11.87846 | -55.58453 | 1239 ft | 9 kts | 195° |
| 2026-04-26 17:42 | -11.88170 | -55.58540 | 1242 ft | 83 kts | 194° |
| 2026-04-26 17:43 | -11.88884 | -55.58738 | 1296 ft | 121 kts | 194° |
| 2026-04-26 17:43 | -11.89738 | -55.59007 | 1442 ft | 135 kts | 187° |
| 2026-04-26 17:43 | -11.90726 | -55.59142 | 1440 ft | 142 kts | 193° |
| 2026-04-26 17:43 | -11.91582 | -55.59296 | 1560 ft | 106 kts | 178° |
| 2026-04-26 17:44 | -11.92301 | -55.59358 | 1374 ft | 107 kts | 182° |
| 2026-04-26 17:44 | -11.93007 | -55.59443 | 1220 ft | 95 kts | 191° |
| 2026-04-26 17:44 | -11.93146 | -55.59500 | 1118 ft | 0 kts | 120° |
| 2026-04-26 17:44 | -11.87960 | -55.58266 | 1242 ft | 0 kts | 16° |
| 2026-04-26 17:52 | -11.87959 | -55.58266 | 1247 ft | 1 kts | 14° |
| 2026-04-26 17:53 | -11.87894 | -55.58294 | 1242 ft | 21 kts | 360° |
| 2026-04-26 17:53 | -11.87826 | -55.58408 | 1250 ft | 20 kts | 287° |
| 2026-04-26 17:53 | -11.87960 | -55.58479 | 1240 ft | 52 kts | 193° |
| 2026-04-26 17:54 | -11.89361 | -55.58862 | 1287 ft | 134 kts | 197° |
| 2026-04-26 17:54 | -11.90323 | -55.59073 | 1357 ft | 149 kts | 184° |
| 2026-04-26 17:54 | -11.91377 | -55.59225 | 1458 ft | 155 kts | 173° |
| 2026-04-26 17:54 | -11.92323 | -55.58759 | 1603 ft | 158 kts | 136° |
| 2026-04-26 17:55 | -11.92773 | -55.57772 | 1766 ft | 154 kts | 88° |
| 2026-04-26 17:55 | -11.92347 | -55.56814 | 1944 ft | 153 kts | 39° |
| 2026-04-26 17:55 | -11.91404 | -55.56262 | 2120 ft | 162 kts | 20° |
| 2026-04-26 17:55 | -11.90290 | -55.56218 | 2323 ft | 165 kts | 345° |
| 2026-04-26 17:56 | -11.89378 | -55.56953 | 2557 ft | 174 kts | 306° |
| 2026-04-26 17:56 | -11.88226 | -55.59163 | 3045 ft | 179 kts | 299° |
| 2026-04-26 17:57 | -11.87072 | -55.61410 | 3510 ft | 174 kts | 299° |
| 2026-04-26 17:57 | -11.86504 | -55.62521 | 3753 ft | 178 kts | 299° |
| 2026-04-26 17:57 | -11.86125 | -55.63265 | 3906 ft | 180 kts | 299° |
| 2026-04-26 17:57 | -11.85513 | -55.64462 | 4178 ft | 182 kts | 299° |
| 2026-04-26 17:58 | -11.83661 | -55.68058 | 4497 ft | 203 kts | 300° |
| 2026-04-26 17:59 | -11.82307 | -55.70665 | 4501 ft | 212 kts | 298° |
| 2026-04-26 17:59 | -11.81631 | -55.72015 | 4495 ft | 214 kts | 299° |
| 2026-04-26 17:59 | -11.80946 | -55.73351 | 4491 ft | 211 kts | 300° |
| 2026-04-26 17:59 | -11.80263 | -55.74676 | 4501 ft | 212 kts | 300° |
| 2026-04-26 18:00 | -11.79571 | -55.76010 | 4502 ft | 213 kts | 300° |
| 2026-04-26 18:00 | -11.78891 | -55.77331 | 4489 ft | 214 kts | 300° |
| 2026-04-26 18:00 | -11.78203 | -55.78678 | 4484 ft | 214 kts | 300° |
| 2026-04-26 18:00 | -11.77510 | -55.80011 | 4490 ft | 214 kts | 300° |
| 2026-04-26 18:01 | -11.76807 | -55.81372 | 4494 ft | 219 kts | 299° |
| 2026-04-26 18:01 | -11.76101 | -55.82748 | 4487 ft | 216 kts | 299° |
| 2026-04-26 18:01 | -11.75413 | -55.84096 | 4484 ft | 212 kts | 300° |
| 2026-04-26 18:01 | -11.74730 | -55.85420 | 4479 ft | 209 kts | 300° |
| 2026-04-26 18:02 | -11.74057 | -55.86725 | 4507 ft | 208 kts | 300° |
| 2026-04-26 18:02 | -11.73601 | -55.87607 | 4465 ft | 214 kts | 299° |
| 2026-04-26 18:02 | -11.72688 | -55.89384 | 4491 ft | 209 kts | 300° |
| 2026-04-26 18:02 | -11.72013 | -55.90696 | 4491 ft | 208 kts | 300° |
| 2026-04-26 18:03 | -11.71341 | -55.92002 | 4488 ft | 207 kts | 299° |
| 2026-04-26 18:03 | -11.70674 | -55.93295 | 4495 ft | 211 kts | 300° |
| 2026-04-26 18:03 | -11.69987 | -55.94620 | 4491 ft | 209 kts | 299° |
| 2026-04-26 18:03 | -11.69314 | -55.95932 | 4487 ft | 207 kts | 300° |
| 2026-04-26 18:04 | -11.68649 | -55.97228 | 4484 ft | 206 kts | 300° |
| 2026-04-26 18:04 | -11.67981 | -55.98519 | 4478 ft | 206 kts | 300° |
| 2026-04-26 18:04 | -11.67313 | -55.99821 | 4474 ft | 210 kts | 300° |
| 2026-04-26 18:05 | -11.65947 | -56.02448 | 4493 ft | 209 kts | 300° |
| 2026-04-26 18:05 | -11.65280 | -56.03758 | 4495 ft | 207 kts | 300° |
| 2026-04-26 18:05 | -11.64610 | -56.05059 | 4490 ft | 207 kts | 300° |
| 2026-04-26 18:05 | -11.63938 | -56.06367 | 4493 ft | 210 kts | 300° |
| 2026-04-26 18:06 | -11.63479 | -56.07791 | 4497 ft | 214 kts | 282° |
| 2026-04-26 18:06 | -11.63171 | -56.09290 | 4494 ft | 218 kts | 284° |
| 2026-04-26 18:06 | -11.62794 | -56.10791 | 4481 ft | 217 kts | 285° |
| 2026-04-26 18:06 | -11.62449 | -56.12247 | 4483 ft | 212 kts | 284° |
| 2026-04-26 18:07 | -11.62120 | -56.13694 | 4484 ft | 208 kts | 284° |
| 2026-04-26 18:07 | -11.61789 | -56.15124 | 4488 ft | 205 kts | 284° |
| 2026-04-26 18:07 | -11.61460 | -56.16540 | 4490 ft | 205 kts | 281° |
| 2026-04-26 18:07 | -11.61252 | -56.17494 | 4492 ft | 204 kts | 284° |
| 2026-04-26 18:08 | -11.60788 | -56.19384 | 4483 ft | 209 kts | 285° |
| 2026-04-26 18:08 | -11.60452 | -56.20827 | 4487 ft | 210 kts | 283° |
| 2026-04-26 18:08 | -11.60123 | -56.22271 | 4491 ft | 208 kts | 284° |
| 2026-04-26 18:08 | -11.59792 | -56.23700 | 4489 ft | 206 kts | 284° |
| 2026-04-26 18:09 | -11.59461 | -56.25113 | 4490 ft | 205 kts | 285° |
| 2026-04-26 18:09 | -11.59132 | -56.26522 | 4489 ft | 204 kts | 284° |
| 2026-04-26 18:09 | -11.58803 | -56.27936 | 4486 ft | 205 kts | 285° |
| 2026-04-26 18:09 | -11.58475 | -56.29354 | 4503 ft | 208 kts | 284° |
| 2026-04-26 18:10 | -11.58131 | -56.30814 | 4479 ft | 212 kts | 284° |
| 2026-04-26 18:10 | -11.57772 | -56.32259 | 4487 ft | 209 kts | 284° |
| 2026-04-26 18:10 | -11.57463 | -56.33706 | 4487 ft | 208 kts | 283° |
| 2026-04-26 18:10 | -11.57129 | -56.35144 | 4500 ft | 213 kts | 285° |
| 2026-04-26 18:11 | -11.56774 | -56.36639 | 4498 ft | 220 kts | 284° |
| 2026-04-26 18:11 | -11.56414 | -56.38175 | 4474 ft | 222 kts | 284° |
| 2026-04-26 18:11 | -11.56064 | -56.39685 | 4482 ft | 216 kts | 284° |
| 2026-04-26 18:11 | -11.55717 | -56.41160 | 4477 ft | 212 kts | 284° |
| 2026-04-26 18:12 | -11.55375 | -56.42619 | 4494 ft | 219 kts | 285° |
| 2026-04-26 18:12 | -11.55018 | -56.44147 | 4465 ft | 220 kts | 285° |
| 2026-04-26 18:12 | -11.54672 | -56.45649 | 4492 ft | 218 kts | 283° |
| 2026-04-26 18:12 | -11.54321 | -56.47139 | 4476 ft | 213 kts | 285° |
| 2026-04-26 18:13 | -11.53969 | -56.48604 | 4498 ft | 212 kts | 285° |
| 2026-04-26 18:13 | -11.53636 | -56.50071 | 4487 ft | 213 kts | 284° |
| 2026-04-26 18:13 | -11.53293 | -56.51538 | 4479 ft | 211 kts | 285° |
| 2026-04-26 18:13 | -11.53178 | -56.52029 | 4503 ft | 210 kts | 285° |
| 2026-04-26 18:14 | -11.52604 | -56.54455 | 4489 ft | 210 kts | 285° |
| 2026-04-26 18:14 | -11.52259 | -56.55896 | 4486 ft | 209 kts | 285° |
| 2026-04-26 18:14 | -11.51937 | -56.57335 | 4483 ft | 207 kts | 284° |
| 2026-04-26 18:14 | -11.51605 | -56.58760 | 4486 ft | 207 kts | 284° |
| 2026-04-26 18:15 | -11.51260 | -56.60194 | 4489 ft | 211 kts | 284° |
| 2026-04-26 18:15 | -11.50923 | -56.61657 | 4478 ft | 213 kts | 284° |
| 2026-04-26 18:15 | -11.50577 | -56.63118 | 4487 ft | 213 kts | 286° |
| 2026-04-26 18:15 | -11.50221 | -56.64598 | 4491 ft | 217 kts | 284° |
| 2026-04-26 18:16 | -11.49894 | -56.66080 | 4500 ft | 215 kts | 284° |
| 2026-04-26 18:16 | -11.50000 | -56.69065 | 4478 ft | 209 kts | 264° |
| 2026-04-26 18:16 | -11.50132 | -56.70532 | 4479 ft | 206 kts | 265° |
| 2026-04-26 18:17 | -11.50275 | -56.71981 | 4476 ft | 205 kts | 264° |
| 2026-04-26 18:17 | -11.50432 | -56.73418 | 4483 ft | 204 kts | 264° |
| 2026-04-26 18:17 | -11.50580 | -56.74850 | 4484 ft | 206 kts | 264° |
| 2026-04-26 18:17 | -11.50739 | -56.76305 | 4483 ft | 207 kts | 264° |
| 2026-04-26 18:18 | -11.50897 | -56.77766 | 4499 ft | 212 kts | 264° |
| 2026-04-26 18:18 | -11.51053 | -56.79295 | 4478 ft | 219 kts | 265° |
| 2026-04-26 18:18 | -11.51210 | -56.80821 | 4489 ft | 215 kts | 264° |
| 2026-04-26 18:18 | -11.51369 | -56.82333 | 4485 ft | 213 kts | 264° |
| 2026-04-26 18:19 | -11.51528 | -56.83829 | 4481 ft | 210 kts | 264° |
| 2026-04-26 18:19 | -11.51683 | -56.85300 | 4479 ft | 208 kts | 264° |
| 2026-04-26 18:19 | -11.51838 | -56.86757 | 4484 ft | 206 kts | 264° |
| 2026-04-26 18:19 | -11.51989 | -56.88202 | 4477 ft | 205 kts | 264° |
| 2026-04-26 18:20 | -11.52140 | -56.89639 | 4476 ft | 203 kts | 264° |
| 2026-04-26 18:20 | -11.52290 | -56.91070 | 4482 ft | 203 kts | 264° |
| 2026-04-26 18:20 | -11.52440 | -56.92501 | 4474 ft | 203 kts | 264° |
| 2026-04-26 18:20 | -11.52489 | -56.92964 | 4482 ft | 203 kts | 264° |
| 2026-04-26 18:21 | -11.52689 | -56.94887 | 4482 ft | 205 kts | 265° |
| 2026-04-26 18:21 | -11.52897 | -56.96851 | 4483 ft | 210 kts | 264° |
| 2026-04-26 18:21 | -11.52998 | -56.97829 | 4484 ft | 209 kts | 264° |
| 2026-04-26 18:21 | -11.53203 | -56.99799 | 4480 ft | 208 kts | 264° |
| 2026-04-26 18:22 | -11.53305 | -57.00770 | 4476 ft | 207 kts | 264° |
| 2026-04-26 18:22 | -11.53458 | -57.02232 | 4499 ft | 208 kts | 264° |
| 2026-04-26 18:22 | -11.53509 | -57.03724 | 4482 ft | 210 kts | 268° |
| 2026-04-26 18:22 | -11.53565 | -57.05227 | 4484 ft | 215 kts | 267° |
| 2026-04-26 18:23 | -11.53630 | -57.06748 | 4477 ft | 213 kts | 269° |
| 2026-04-26 18:23 | -11.53682 | -57.08241 | 4486 ft | 209 kts | 269° |
| 2026-04-26 18:23 | -11.53736 | -57.09724 | 4494 ft | 210 kts | 269° |
| 2026-04-26 18:23 | -11.53786 | -57.11194 | 4485 ft | 209 kts | 269° |
| 2026-04-26 18:24 | -11.53838 | -57.12675 | 4474 ft | 211 kts | 269° |
| 2026-04-26 18:24 | -11.53891 | -57.14120 | 4197 ft | 196 kts | 269° |
| 2026-04-26 18:24 | -11.53939 | -57.15478 | 3965 ft | 191 kts | 270° |
| 2026-04-26 18:24 | -11.53988 | -57.16823 | 3716 ft | 188 kts | 268° |
| 2026-04-26 18:25 | -11.54038 | -57.18154 | 3479 ft | 185 kts | 269° |
| 2026-04-26 18:25 | -11.54052 | -57.19448 | 3214 ft | 179 kts | 270° |
| 2026-04-26 18:25 | -11.54126 | -57.20693 | 2990 ft | 177 kts | 266° |
| 2026-04-26 18:25 | -11.54182 | -57.21970 | 2744 ft | 180 kts | 269° |
| 2026-04-26 18:26 | -11.54220 | -57.23234 | 2508 ft | 180 kts | 269° |
| 2026-04-26 18:26 | -11.54261 | -57.24490 | 2254 ft | 176 kts | 269° |
| 2026-04-26 18:26 | -11.54299 | -57.25713 | 2005 ft | 170 kts | 269° |
| 2026-04-26 18:26 | -11.54340 | -57.26879 | 1880 ft | 157 kts | 269° |
| 2026-04-26 18:27 | -11.54378 | -57.27930 | 1874 ft | 145 kts | 268° |
| 2026-04-26 18:27 | -11.54423 | -57.29028 | 1887 ft | 164 kts | 268° |
| 2026-04-26 18:27 | -11.54462 | -57.30223 | 1894 ft | 174 kts | 269° |
| 2026-04-26 18:27 | -11.54505 | -57.31483 | 1897 ft | 181 kts | 268° |
| 2026-04-26 18:28 | -11.54545 | -57.32792 | 1893 ft | 187 kts | 268° |
| 2026-04-26 18:28 | -11.54584 | -57.34129 | 1897 ft | 189 kts | 270° |
| 2026-04-26 18:28 | -11.54451 | -57.35487 | 1891 ft | 196 kts | 280° |
| 2026-04-26 18:28 | -11.54256 | -57.36862 | 1895 ft | 196 kts | 278° |
| 2026-04-26 18:29 | -11.54082 | -57.38242 | 1893 ft | 197 kts | 278° |
| 2026-04-26 18:29 | -11.54194 | -57.39577 | 1875 ft | 184 kts | 246° |
| 2026-04-26 18:29 | -11.55044 | -57.40458 | 1875 ft | 173 kts | 202° |
| 2026-04-26 18:29 | -11.56107 | -57.40981 | 1875 ft | 165 kts | 206° |
| 2026-04-26 18:30 | -11.57079 | -57.41490 | 1864 ft | 148 kts | 200° |
| 2026-04-26 18:30 | -11.58012 | -57.41510 | 1871 ft | 128 kts | 154° |
| 2026-04-26 18:30 | -11.58372 | -57.40806 | 1999 ft | 122 kts | 69° |
| 2026-04-26 18:30 | -11.57825 | -57.40206 | 2150 ft | 129 kts | 28° |
| 2026-04-26 18:31 | -11.56901 | -57.39896 | 1848 ft | 140 kts | 14° |
| 2026-04-26 18:31 | -11.56086 | -57.39650 | 1616 ft | 111 kts | 24° |
| 2026-04-26 18:31 | -11.55393 | -57.39198 | 1533 ft | 121 kts | 41° |
| 2026-04-26 18:31 | -11.54796 | -57.38594 | 1415 ft | 115 kts | 42° |
| 2026-04-26 18:32 | -11.54274 | -57.38089 | 1319 ft | 90 kts | 43° |
| 2026-04-26 18:32 | -11.53823 | -57.37650 | 1308 ft | 102 kts | 44° |
| 2026-04-26 18:32 | -11.53266 | -57.37154 | 1506 ft | 100 kts | 32° |
| 2026-04-26 18:32 | -11.52624 | -57.36833 | 1662 ft | 110 kts | 45° |
| 2026-04-26 18:33 | -11.52487 | -57.36089 | 1788 ft | 117 kts | 113° |
| 2026-04-26 18:33 | -11.53158 | -57.35592 | 1955 ft | 128 kts | 156° |
| 2026-04-26 18:33 | -11.53990 | -57.35236 | 2116 ft | 130 kts | 153° |
| 2026-04-26 18:33 | -11.54827 | -57.34852 | 2282 ft | 133 kts | 153° |
| 2026-04-26 18:34 | -11.55687 | -57.34480 | 2430 ft | 134 kts | 154° |
| 2026-04-26 18:34 | -11.56527 | -57.34099 | 2571 ft | 130 kts | 154° |
| 2026-04-26 18:34 | -11.57176 | -57.33533 | 2704 ft | 123 kts | 109° |
| 2026-04-26 18:34 | -11.57027 | -57.32732 | 2855 ft | 123 kts | 47° |
| 2026-04-26 18:35 | -11.56252 | -57.32384 | 3016 ft | 130 kts | 6° |
| 2026-04-26 18:35 | -11.55402 | -57.32725 | 3169 ft | 140 kts | 317° |
| 2026-04-26 18:35 | -11.54897 | -57.33596 | 3321 ft | 144 kts | 297° |
| 2026-04-26 18:35 | -11.54528 | -57.34505 | 3431 ft | 144 kts | 281° |
| 2026-04-26 18:36 | -11.54422 | -57.35607 | 3480 ft | 168 kts | 277° |
| 2026-04-26 18:36 | -11.54270 | -57.36836 | 3565 ft | 179 kts | 278° |
| 2026-04-26 18:36 | -11.54099 | -57.38104 | 3745 ft | 182 kts | 278° |
| 2026-04-26 18:36 | -11.53931 | -57.39414 | 3901 ft | 186 kts | 279° |
| 2026-04-26 18:37 | -11.53762 | -57.40716 | 4096 ft | 187 kts | 279° |
| 2026-04-26 18:37 | -11.53596 | -57.42050 | 4274 ft | 193 kts | 278° |
| 2026-04-26 18:37 | -11.53421 | -57.43395 | 4434 ft | 189 kts | 279° |
| 2026-04-26 18:37 | -11.53247 | -57.44738 | 4479 ft | 194 kts | 279° |
| 2026-04-26 18:38 | -11.53069 | -57.46118 | 4501 ft | 200 kts | 278° |
| 2026-04-26 18:38 | -11.52882 | -57.47566 | 4479 ft | 211 kts | 279° |
| 2026-04-26 18:38 | -11.52678 | -57.49048 | 4493 ft | 213 kts | 279° |
| 2026-04-26 18:38 | -11.52498 | -57.50558 | 4492 ft | 216 kts | 278° |
| 2026-04-26 18:39 | -11.52308 | -57.52078 | 4497 ft | 216 kts | 280° |
| 2026-04-26 18:39 | -11.52104 | -57.53602 | 4499 ft | 218 kts | 279° |
| 2026-04-26 18:39 | -11.51905 | -57.55114 | 4499 ft | 218 kts | 279° |
| 2026-04-26 18:39 | -11.51705 | -57.56639 | 4488 ft | 215 kts | 279° |
| 2026-04-26 18:40 | -11.51525 | -57.58130 | 4482 ft | 209 kts | 279° |
| 2026-04-26 18:40 | -11.51334 | -57.59602 | 4490 ft | 210 kts | 279° |
| 2026-04-26 18:40 | -11.51143 | -57.61069 | 4490 ft | 207 kts | 279° |
| 2026-04-26 18:40 | -11.50951 | -57.62527 | 4488 ft | 207 kts | 279° |
| 2026-04-26 18:41 | -11.50759 | -57.63979 | 4473 ft | 206 kts | 278° |
| 2026-04-26 18:41 | -11.50578 | -57.65421 | 4490 ft | 204 kts | 279° |
| 2026-04-26 18:41 | -11.50392 | -57.66851 | 4481 ft | 203 kts | 279° |
| 2026-04-26 18:41 | -11.50207 | -57.68268 | 4475 ft | 201 kts | 278° |
| 2026-04-26 18:42 | -11.50026 | -57.69677 | 4478 ft | 200 kts | 279° |
| 2026-04-26 18:42 | -11.49844 | -57.71071 | 4487 ft | 198 kts | 279° |
| 2026-04-26 18:42 | -11.49663 | -57.72462 | 4481 ft | 198 kts | 279° |
| 2026-04-26 18:42 | -11.49484 | -57.73847 | 4484 ft | 197 kts | 279° |
| 2026-04-26 18:43 | -11.49304 | -57.75214 | 4478 ft | 197 kts | 279° |
| 2026-04-26 18:43 | -11.49130 | -57.76592 | 4479 ft | 194 kts | 279° |
| 2026-04-26 18:43 | -11.48951 | -57.77962 | 4489 ft | 196 kts | 279° |
| 2026-04-26 18:43 | -11.48770 | -57.79330 | 4490 ft | 195 kts | 279° |
| 2026-04-26 18:44 | -11.48593 | -57.80714 | 4496 ft | 199 kts | 279° |
| 2026-04-26 18:44 | -11.48406 | -57.82128 | 4479 ft | 201 kts | 279° |
| 2026-04-26 18:44 | -11.48227 | -57.83529 | 4485 ft | 198 kts | 278° |
| 2026-04-26 18:44 | -11.48134 | -57.84925 | 4495 ft | 198 kts | 264° |
| 2026-04-26 18:45 | -11.48355 | -57.86312 | 4482 ft | 198 kts | 262° |
| 2026-04-26 18:45 | -11.48529 | -57.87703 | 4489 ft | 198 kts | 264° |
| 2026-04-26 18:45 | -11.48701 | -57.89106 | 4496 ft | 201 kts | 263° |
| 2026-04-26 18:45 | -11.48892 | -57.90532 | 4487 ft | 205 kts | 263° |
| 2026-04-26 18:46 | -11.49086 | -57.91971 | 4484 ft | 204 kts | 263° |
| 2026-04-26 18:46 | -11.49276 | -57.93394 | 4501 ft | 202 kts | 264° |
| 2026-04-26 18:46 | -11.49463 | -57.94841 | 4495 ft | 207 kts | 263° |
| 2026-04-26 18:46 | -11.49653 | -57.96287 | 4477 ft | 207 kts | 264° |
| 2026-04-26 18:47 | -11.49848 | -57.97745 | 4503 ft | 205 kts | 263° |
| 2026-04-26 18:47 | -11.50042 | -57.99207 | 4471 ft | 210 kts | 264° |
| 2026-04-26 18:47 | -11.50235 | -58.00664 | 4490 ft | 207 kts | 263° |
| 2026-04-26 18:47 | -11.50426 | -58.02111 | 4492 ft | 205 kts | 263° |
| 2026-04-26 18:48 | -11.50610 | -58.03533 | 4476 ft | 204 kts | 263° |
| 2026-04-26 18:48 | -11.50800 | -58.04953 | 4473 ft | 201 kts | 263° |
| 2026-04-26 18:48 | -11.50986 | -58.06352 | 4478 ft | 198 kts | 263° |
| 2026-04-26 18:48 | -11.51166 | -58.07727 | 4195 ft | 184 kts | 263° |
| 2026-04-26 18:49 | -11.51328 | -58.08985 | 3901 ft | 175 kts | 263° |
| 2026-04-26 18:49 | -11.51489 | -58.10188 | 3598 ft | 167 kts | 263° |
| 2026-04-26 18:49 | -11.51646 | -58.11352 | 3304 ft | 164 kts | 263° |
| 2026-04-26 18:49 | -11.51791 | -58.12491 | 2996 ft | 160 kts | 263° |
| 2026-04-26 18:50 | -11.51936 | -58.13601 | 2658 ft | 153 kts | 263° |
| 2026-04-26 18:50 | -11.51834 | -58.14631 | 2329 ft | 143 kts | 290° |
| 2026-04-26 18:50 | -11.51527 | -58.15630 | 2088 ft | 148 kts | 289° |
| 2026-04-26 18:50 | -11.51222 | -58.16636 | 2098 ft | 156 kts | 289° |
| 2026-04-26 18:51 | -11.50926 | -58.17735 | 2097 ft | 166 kts | 279° |
| 2026-04-26 18:51 | -11.50985 | -58.18947 | 2097 ft | 177 kts | 262° |
| 2026-04-26 18:51 | -11.51170 | -58.20183 | 2103 ft | 176 kts | 261° |
| 2026-04-26 18:51 | -11.51363 | -58.21435 | 2087 ft | 182 kts | 261° |
| 2026-04-26 18:52 | -11.51541 | -58.22708 | 2089 ft | 180 kts | 263° |
| 2026-04-26 18:52 | -11.51723 | -58.23966 | 2094 ft | 179 kts | 262° |
| 2026-04-26 18:52 | -11.51942 | -58.25212 | 2095 ft | 178 kts | 259° |
| 2026-04-26 18:52 | -11.52184 | -58.26447 | 2095 ft | 177 kts | 258° |
| 2026-04-26 18:53 | -11.52428 | -58.27666 | 2109 ft | 178 kts | 258° |
| 2026-04-26 18:53 | -11.52676 | -58.28917 | 2118 ft | 181 kts | 260° |
| 2026-04-26 18:53 | -11.52946 | -58.30200 | 2096 ft | 185 kts | 252° |
| 2026-04-26 18:53 | -11.53686 | -58.31232 | 2103 ft | 182 kts | 214° |
| 2026-04-26 18:54 | -11.54842 | -58.31591 | 2098 ft | 176 kts | 174° |
| 2026-04-26 18:54 | -11.55804 | -58.31133 | 1980 ft | 141 kts | 133° |
| 2026-04-26 18:54 | -11.56420 | -58.30386 | 1699 ft | 132 kts | 111° |
| 2026-04-26 18:54 | -11.56526 | -58.29512 | 1451 ft | 120 kts | 85° |
| 2026-04-26 18:55 | -11.56461 | -58.28704 | 1317 ft | 116 kts | 84° |
| 2026-04-26 18:55 | -11.56404 | -58.27851 | 1230 ft | 122 kts | 81° |
| 2026-04-26 18:55 | -11.55937 | -58.27158 | 1171 ft | 124 kts | 42° |
| 2026-04-26 18:55 | -11.55264 | -58.26627 | 1183 ft | 121 kts | 25° |
| 2026-04-26 18:56 | -11.54539 | -58.26265 | 1277 ft | 112 kts | 19° |
| 2026-04-26 18:56 | -11.53795 | -58.26151 | 1373 ft | 109 kts | 352° |
| 2026-04-26 18:56 | -11.53162 | -58.26583 | 1501 ft | 116 kts | 316° |
| 2026-04-26 18:56 | -11.52890 | -58.27370 | 1635 ft | 129 kts | 260° |
| 2026-04-26 18:57 | -11.53112 | -58.28287 | 1787 ft | 139 kts | 256° |
| 2026-04-26 18:57 | -11.53255 | -58.28938 | 1884 ft | 146 kts | 258° |
| 2026-04-26 18:57 | -11.53560 | -58.30254 | 2050 ft | 135 kts | 253° |
| 2026-04-26 18:57 | -11.54155 | -58.30889 | 2061 ft | 132 kts | 191° |
| 2026-04-26 18:58 | -11.54982 | -58.30698 | 1978 ft | 128 kts | 132° |
| 2026-04-26 18:58 | -11.55233 | -58.29906 | 1840 ft | 115 kts | 68° |
| 2026-04-26 18:58 | -11.54776 | -58.29176 | 1424 ft | 126 kts | 60° |
| 2026-04-26 18:58 | -11.54465 | -58.28410 | 1164 ft | 116 kts | 73° |
| 2026-04-26 18:59 | -11.54225 | -58.27652 | 1021 ft | 109 kts | 72° |
| 2026-04-26 18:59 | -11.54011 | -58.26997 | 1004 ft | 95 kts | 71° |
| 2026-04-26 18:59 | -11.53777 | -58.26302 | 1065 ft | 108 kts | 69° |
| 2026-04-26 18:59 | -11.53515 | -58.25572 | 1159 ft | 112 kts | 69° |
| 2026-04-26 19:00 | -11.53225 | -58.24791 | 1330 ft | 122 kts | 63° |
| 2026-04-26 19:00 | -11.53056 | -58.23930 | 1518 ft | 131 kts | 105° |
| 2026-04-26 19:00 | -11.53708 | -58.23275 | 1708 ft | 146 kts | 162° |
| 2026-04-26 19:00 | -11.54719 | -58.23459 | 1937 ft | 155 kts | 216° |
| 2026-04-26 19:01 | -11.55243 | -58.24385 | 2188 ft | 154 kts | 268° |
| 2026-04-26 19:01 | -11.54890 | -58.25368 | 2460 ft | 150 kts | 318° |
| 2026-04-26 19:01 | -11.54109 | -58.26117 | 2734 ft | 160 kts | 314° |
| 2026-04-26 19:01 | -11.53486 | -58.27084 | 3005 ft | 168 kts | 297° |
| 2026-04-26 19:02 | -11.53181 | -58.28289 | 3273 ft | 183 kts | 277° |
| 2026-04-26 19:02 | -11.53107 | -58.29613 | 3505 ft | 189 kts | 274° |
| 2026-04-26 19:02 | -11.53047 | -58.30926 | 3742 ft | 186 kts | 275° |
| 2026-04-26 19:02 | -11.53001 | -58.31808 | 3900 ft | 183 kts | 274° |
| 2026-04-26 19:03 | -11.52905 | -58.33497 | 4214 ft | 178 kts | 275° |
| 2026-04-26 19:03 | -11.52835 | -58.34746 | 4467 ft | 177 kts | 275° |
| 2026-04-26 19:03 | -11.52763 | -58.36044 | 4494 ft | 190 kts | 275° |
| 2026-04-26 19:03 | -11.52678 | -58.37350 | 4501 ft | 197 kts | 279° |
| 2026-04-26 19:04 | -11.52276 | -58.38721 | 4511 ft | 207 kts | 293° |
| 2026-04-26 19:04 | -11.51805 | -58.40124 | 4519 ft | 212 kts | 289° |
| 2026-04-26 19:04 | -11.51368 | -58.41578 | 4509 ft | 215 kts | 289° |
| 2026-04-26 19:04 | -11.50908 | -58.43021 | 4513 ft | 215 kts | 290° |
| 2026-04-26 19:05 | -11.49960 | -58.45963 | 4508 ft | 225 kts | 290° |
| 2026-04-26 19:05 | -11.49481 | -58.47464 | 4510 ft | 221 kts | 291° |
| 2026-04-26 19:05 | -11.49003 | -58.48965 | 4503 ft | 223 kts | 290° |
| 2026-04-26 19:06 | -11.48523 | -58.50466 | 4518 ft | 224 kts | 290° |
| 2026-04-26 19:06 | -11.48037 | -58.51974 | 4506 ft | 222 kts | 291° |
| 2026-04-26 19:06 | -11.47556 | -58.53482 | 4294 ft | 220 kts | 290° |
| 2026-04-26 19:06 | -11.47093 | -58.54926 | 3925 ft | 203 kts | 290° |
| 2026-04-26 19:07 | -11.46678 | -58.56231 | 3604 ft | 190 kts | 290° |
| 2026-04-26 19:07 | -11.46340 | -58.57517 | 3235 ft | 185 kts | 275° |
| 2026-04-26 19:07 | -11.46671 | -58.58729 | 2890 ft | 176 kts | 238° |
| 2026-04-26 19:07 | -11.47277 | -58.59781 | 2534 ft | 168 kts | 244° |
| 2026-04-26 19:08 | -11.47713 | -58.60866 | 2203 ft | 164 kts | 250° |
| 2026-04-26 19:08 | -11.48094 | -58.61888 | 2092 ft | 146 kts | 249° |
| 2026-04-26 19:08 | -11.48447 | -58.62808 | 2098 ft | 141 kts | 249° |
| 2026-04-26 19:08 | -11.48824 | -58.63794 | 2103 ft | 157 kts | 249° |
| 2026-04-26 19:09 | -11.49235 | -58.64878 | 2096 ft | 169 kts | 249° |
| 2026-04-26 19:09 | -11.49639 | -58.65947 | 2100 ft | 149 kts | 247° |
| 2026-04-26 19:09 | -11.49984 | -58.66840 | 2083 ft | 126 kts | 251° |
| 2026-04-26 19:09 | -11.50274 | -58.67696 | 2090 ft | 132 kts | 264° |
| 2026-04-26 19:10 | -11.50092 | -58.68557 | 2105 ft | 121 kts | 302° |
| 2026-04-26 19:10 | -11.49525 | -58.69169 | 2102 ft | 117 kts | 336° |
| 2026-04-26 19:10 | -11.48740 | -58.69421 | 1966 ft | 119 kts | 353° |
| 2026-04-26 19:10 | -11.47898 | -58.69612 | 1848 ft | 133 kts | 350° |
| 2026-04-26 19:11 | -11.46996 | -58.69831 | 1738 ft | 127 kts | 348° |
| 2026-04-26 19:11 | -11.46201 | -58.70020 | 1579 ft | 110 kts | 352° |
| 2026-04-26 19:11 | -11.45487 | -58.70181 | 1500 ft | 102 kts | 351° |
| 2026-04-26 19:11 | -11.44781 | -58.70349 | 1471 ft | 107 kts | 348° |
| 2026-04-26 19:12 | -11.44050 | -58.70528 | 1289 ft | 109 kts | 343° |
| 2026-04-26 19:12 | -11.43296 | -58.70691 | 1173 ft | 113 kts | 339° |
| 2026-04-26 19:12 | -11.42795 | -58.70808 | 1095 ft | 108 kts | 341° |
| 2026-04-26 19:12 | -11.42024 | -58.70979 | 1070 ft | 55 kts | 347° |
| 2026-04-26 19:13 | -11.41864 | -58.71014 | 1070 ft | 15 kts | 347° |
| 2026-04-26 19:13 | -11.41811 | -58.70962 | 1069 ft | 11 kts | 80° |
| 2026-04-26 19:13 | -11.41807 | -58.70946 | 1069 ft | 0 kts | 79° |
| 2026-04-26 19:14 | -11.41807 | -58.70945 | 1069 ft | 1 kts | 79° |
| 2026-04-26 19:14 | -11.41798 | -58.70873 | 1068 ft | 21 kts | 107° |
| 2026-04-26 19:15 | -11.41808 | -58.70847 | 1068 ft | 0 kts | 111° |